sensor_id;sensor_type;location;lat;lon;timestamp;P1;durP1;ratioP1;P2;durP2;ratioP2
11665;SDS011;5889;51.350;6.708;2023-03-20T00:01:21;14.37;;;8.90;;
11665;SDS011;5889;51.350;6.708;2023-03-20T00:03:50;16.47;;;8.87;;
11665;SDS011;5889;51.350;6.708;2023-03-20T00:06:17;13.20;;;9.00;;
11665;SDS011;5889;51.350;6.708;2023-03-20T00:08:46;13.87;;;8.57;;
11665;SDS011;5889;51.350;6.708;2023-03-20T00:11:21;13.60;;;8.77;;
11665;SDS011;5889;51.350;6.708;2023-03-20T00:13:56;13.50;;;9.13;;
11665;SDS011;5889;51.350;6.708;2023-03-20T00:16:26;15.03;;;9.90;;
11665;SDS011;5889;51.350;6.708;2023-03-20T00:18:56;14.00;;;9.90;;
11665;SDS011;5889;51.350;6.708;2023-03-20T00:21:23;18.50;;;10.60;;
11665;SDS011;5889;51.350;6.708;2023-03-20T00:23:51;15.33;;;9.10;;
11665;SDS011;5889;51.350;6.708;2023-03-20T00:26:18;12.80;;;9.13;;
11665;SDS011;5889;51.350;6.708;2023-03-20T00:28:46;13.13;;;8.03;;
11665;SDS011;5889;51.350;6.708;2023-03-20T00:31:18;10.67;;;7.70;;
11665;SDS011;5889;51.350;6.708;2023-03-20T00:33:49;9.40;;;6.70;;
11665;SDS011;5889;51.350;6.708;2023-03-20T00:36:16;10.07;;;6.87;;
11665;SDS011;5889;51.350;6.708;2023-03-20T00:38:43;10.20;;;6.80;;
11665;SDS011;5889;51.350;6.708;2023-03-20T00:41:12;11.07;;;7.37;;
11665;SDS011;5889;51.350;6.708;2023-03-20T00:43:47;8.73;;;6.57;;
11665;SDS011;5889;51.350;6.708;2023-03-20T00:46:18;12.17;;;7.43;;
11665;SDS011;5889;51.350;6.708;2023-03-20T00:48:45;13.53;;;8.50;;
11665;SDS011;5889;51.350;6.708;2023-03-20T00:51:12;11.53;;;8.00;;
11665;SDS011;5889;51.350;6.708;2023-03-20T00:53:40;13.80;;;9.80;;
11665;SDS011;5889;51.350;6.708;2023-03-20T00:56:09;13.20;;;8.80;;
11665;SDS011;5889;51.350;6.708;2023-03-20T00:58:58;15.07;;;9.40;;
11665;SDS011;5889;51.350;6.708;2023-03-20T01:01:28;12.33;;;8.13;;
11665;SDS011;5889;51.350;6.708;2023-03-20T01:03:56;14.07;;;9.70;;
11665;SDS011;5889;51.350;6.708;2023-03-20T01:06:23;15.23;;;9.40;;
11665;SDS011;5889;51.350;6.708;2023-03-20T01:08:50;13.80;;;8.27;;
11665;SDS011;5889;51.350;6.708;2023-03-20T01:11:20;15.17;;;9.00;;
11665;SDS011;5889;51.350;6.708;2023-03-20T01:13:49;14.00;;;8.93;;
11665;SDS011;5889;51.350;6.708;2023-03-20T01:16:17;14.60;;;9.37;;
11665;SDS011;5889;51.350;6.708;2023-03-20T01:18:47;14.77;;;8.50;;
11665;SDS011;5889;51.350;6.708;2023-03-20T01:21:14;12.10;;;8.43;;
11665;SDS011;5889;51.350;6.708;2023-03-20T01:23:41;16.90;;;8.90;;
11665;SDS011;5889;51.350;6.708;2023-03-20T01:26:11;19.27;;;9.43;;
11665;SDS011;5889;51.350;6.708;2023-03-20T01:28:46;14.27;;;8.73;;
11665;SDS011;5889;51.350;6.708;2023-03-20T01:31:14;14.23;;;9.37;;
11665;SDS011;5889;51.350;6.708;2023-03-20T01:33:42;14.83;;;9.83;;
11665;SDS011;5889;51.350;6.708;2023-03-20T01:36:11;14.40;;;9.30;;
11665;SDS011;5889;51.350;6.708;2023-03-20T01:38:39;15.10;;;9.53;;
11665;SDS011;5889;51.350;6.708;2023-03-20T01:41:08;14.43;;;8.60;;
11665;SDS011;5889;51.350;6.708;2023-03-20T01:43:39;12.93;;;9.37;;
11665;SDS011;5889;51.350;6.708;2023-03-20T01:46:13;17.60;;;9.10;;
11665;SDS011;5889;51.350;6.708;2023-03-20T01:48:55;16.67;;;9.40;;
11665;SDS011;5889;51.350;6.708;2023-03-20T01:51:27;16.70;;;9.67;;
11665;SDS011;5889;51.350;6.708;2023-03-20T01:53:57;16.27;;;9.60;;
11665;SDS011;5889;51.350;6.708;2023-03-20T01:56:27;16.67;;;9.27;;
11665;SDS011;5889;51.350;6.708;2023-03-20T01:58:58;16.07;;;8.53;;
11665;SDS011;5889;51.350;6.708;2023-03-20T02:01:28;13.73;;;8.87;;
11665;SDS011;5889;51.350;6.708;2023-03-20T02:03:55;13.83;;;9.40;;
11665;SDS011;5889;51.350;6.708;2023-03-20T02:06:22;17.03;;;9.47;;
11665;SDS011;5889;51.350;6.708;2023-03-20T02:08:52;16.03;;;9.20;;
11665;SDS011;5889;51.350;6.708;2023-03-20T02:11:20;15.43;;;9.30;;
11665;SDS011;5889;51.350;6.708;2023-03-20T02:13:49;14.37;;;8.97;;
11665;SDS011;5889;51.350;6.708;2023-03-20T02:16:17;15.67;;;9.27;;
11665;SDS011;5889;51.350;6.708;2023-03-20T02:18:46;13.37;;;8.83;;
11665;SDS011;5889;51.350;6.708;2023-03-20T02:21:25;15.63;;;9.63;;
11665;SDS011;5889;51.350;6.708;2023-03-20T02:27:15;16.30;;;9.00;;
11665;SDS011;5889;51.350;6.708;2023-03-20T02:32:56;14.83;;;9.07;;
11665;SDS011;5889;51.350;6.708;2023-03-20T02:35:56;16.57;;;9.63;;
11665;SDS011;5889;51.350;6.708;2023-03-20T02:38:42;18.13;;;10.93;;
11665;SDS011;5889;51.350;6.708;2023-03-20T02:41:38;17.93;;;10.73;;
11665;SDS011;5889;51.350;6.708;2023-03-20T02:44:11;17.70;;;10.50;;
11665;SDS011;5889;51.350;6.708;2023-03-20T02:46:42;20.40;;;11.37;;
11665;SDS011;5889;51.350;6.708;2023-03-20T02:49:22;20.57;;;11.70;;
11665;SDS011;5889;51.350;6.708;2023-03-20T02:51:59;16.80;;;10.30;;
11665;SDS011;5889;51.350;6.708;2023-03-20T02:54:32;19.83;;;11.00;;
11665;SDS011;5889;51.350;6.708;2023-03-20T02:57:06;18.97;;;11.20;;
11665;SDS011;5889;51.350;6.708;2023-03-20T02:59:38;19.93;;;11.17;;
11665;SDS011;5889;51.350;6.708;2023-03-20T03:02:11;17.90;;;10.60;;
11665;SDS011;5889;51.350;6.708;2023-03-20T03:04:42;19.17;;;10.90;;
11665;SDS011;5889;51.350;6.708;2023-03-20T03:07:15;19.03;;;11.47;;
11665;SDS011;5889;51.350;6.708;2023-03-20T03:09:48;18.57;;;11.13;;
11665;SDS011;5889;51.350;6.708;2023-03-20T03:12:20;18.83;;;11.10;;
11665;SDS011;5889;51.350;6.708;2023-03-20T03:14:50;24.37;;;12.83;;
11665;SDS011;5889;51.350;6.708;2023-03-20T03:17:20;20.67;;;11.80;;
11665;SDS011;5889;51.350;6.708;2023-03-20T03:19:51;18.63;;;12.33;;
11665;SDS011;5889;51.350;6.708;2023-03-20T03:22:21;20.57;;;12.57;;
11665;SDS011;5889;51.350;6.708;2023-03-20T03:24:51;20.13;;;11.17;;
11665;SDS011;5889;51.350;6.708;2023-03-20T03:27:19;18.83;;;11.83;;
11665;SDS011;5889;51.350;6.708;2023-03-20T03:29:49;17.10;;;10.53;;
11665;SDS011;5889;51.350;6.708;2023-03-20T03:32:22;19.17;;;11.43;;
11665;SDS011;5889;51.350;6.708;2023-03-20T03:34:52;18.77;;;10.87;;
11665;SDS011;5889;51.350;6.708;2023-03-20T03:37:22;17.10;;;10.53;;
11665;SDS011;5889;51.350;6.708;2023-03-20T03:40:01;17.20;;;10.57;;
11665;SDS011;5889;51.350;6.708;2023-03-20T03:42:34;18.57;;;10.57;;
11665;SDS011;5889;51.350;6.708;2023-03-20T03:45:05;21.87;;;12.83;;
11665;SDS011;5889;51.350;6.708;2023-03-20T03:47:38;20.47;;;11.43;;
11665;SDS011;5889;51.350;6.708;2023-03-20T03:50:11;21.43;;;12.53;;
11665;SDS011;5889;51.350;6.708;2023-03-20T03:52:42;26.67;;;13.60;;
11665;SDS011;5889;51.350;6.708;2023-03-20T03:55:12;25.17;;;13.80;;
11665;SDS011;5889;51.350;6.708;2023-03-20T03:57:42;25.03;;;13.63;;
11665;SDS011;5889;51.350;6.708;2023-03-20T04:00:16;24.87;;;14.13;;
11665;SDS011;5889;51.350;6.708;2023-03-20T04:02:46;24.43;;;14.20;;
11665;SDS011;5889;51.350;6.708;2023-03-20T04:05:17;22.40;;;14.00;;
11665;SDS011;5889;51.350;6.708;2023-03-20T04:07:45;27.83;;;14.40;;
11665;SDS011;5889;51.350;6.708;2023-03-20T04:10:15;27.13;;;13.37;;
11665;SDS011;5889;51.350;6.708;2023-03-20T04:12:42;24.93;;;13.80;;
11665;SDS011;5889;51.350;6.708;2023-03-20T04:15:10;26.40;;;14.40;;
11665;SDS011;5889;51.350;6.708;2023-03-20T04:17:38;23.87;;;13.87;;
11665;SDS011;5889;51.350;6.708;2023-03-20T04:20:06;26.47;;;14.27;;
11665;SDS011;5889;51.350;6.708;2023-03-20T04:22:34;24.27;;;12.90;;
11665;SDS011;5889;51.350;6.708;2023-03-20T04:25:02;22.40;;;13.57;;
11665;SDS011;5889;51.350;6.708;2023-03-20T04:27:31;24.97;;;13.63;;
11665;SDS011;5889;51.350;6.708;2023-03-20T04:29:58;23.27;;;13.30;;
11665;SDS011;5889;51.350;6.708;2023-03-20T04:32:24;25.07;;;13.20;;
11665;SDS011;5889;51.350;6.708;2023-03-20T04:34:51;24.47;;;13.20;;
11665;SDS011;5889;51.350;6.708;2023-03-20T04:37:18;19.37;;;11.77;;
11665;SDS011;5889;51.350;6.708;2023-03-20T04:39:45;21.40;;;12.73;;
11665;SDS011;5889;51.350;6.708;2023-03-20T04:42:12;22.77;;;12.70;;
11665;SDS011;5889;51.350;6.708;2023-03-20T04:44:40;21.20;;;13.03;;
11665;SDS011;5889;51.350;6.708;2023-03-20T04:47:06;24.53;;;12.93;;
11665;SDS011;5889;51.350;6.708;2023-03-20T04:49:33;22.40;;;12.80;;
11665;SDS011;5889;51.350;6.708;2023-03-20T04:52:00;22.20;;;12.70;;
11665;SDS011;5889;51.350;6.708;2023-03-20T04:54:27;25.33;;;12.47;;
11665;SDS011;5889;51.350;6.708;2023-03-20T04:56:54;22.17;;;12.47;;
11665;SDS011;5889;51.350;6.708;2023-03-20T04:59:21;24.70;;;12.90;;
11665;SDS011;5889;51.350;6.708;2023-03-20T05:01:49;24.43;;;12.17;;
11665;SDS011;5889;51.350;6.708;2023-03-20T05:04:16;22.33;;;11.93;;
11665;SDS011;5889;51.350;6.708;2023-03-20T05:06:42;24.37;;;12.93;;
11665;SDS011;5889;51.350;6.708;2023-03-20T05:09:13;19.47;;;12.30;;
11665;SDS011;5889;51.350;6.708;2023-03-20T05:11:40;22.03;;;11.67;;
11665;SDS011;5889;51.350;6.708;2023-03-20T05:14:06;19.93;;;11.70;;
11665;SDS011;5889;51.350;6.708;2023-03-20T05:16:33;22.10;;;11.30;;
11665;SDS011;5889;51.350;6.708;2023-03-20T05:19:01;17.47;;;11.03;;
11665;SDS011;5889;51.350;6.708;2023-03-20T05:21:28;20.40;;;11.60;;
11665;SDS011;5889;51.350;6.708;2023-03-20T05:23:55;21.03;;;11.73;;
11665;SDS011;5889;51.350;6.708;2023-03-20T05:26:22;23.70;;;11.97;;
11665;SDS011;5889;51.350;6.708;2023-03-20T05:28:48;18.17;;;10.77;;
11665;SDS011;5889;51.350;6.708;2023-03-20T05:31:15;19.17;;;10.73;;
11665;SDS011;5889;51.350;6.708;2023-03-20T05:33:42;20.53;;;10.97;;
11665;SDS011;5889;51.350;6.708;2023-03-20T05:36:10;18.60;;;10.20;;
11665;SDS011;5889;51.350;6.708;2023-03-20T05:38:37;18.13;;;9.33;;
11665;SDS011;5889;51.350;6.708;2023-03-20T05:41:03;17.33;;;9.57;;
11665;SDS011;5889;51.350;6.708;2023-03-20T05:43:31;18.17;;;9.80;;
11665;SDS011;5889;51.350;6.708;2023-03-20T05:45:57;19.27;;;10.20;;
11665;SDS011;5889;51.350;6.708;2023-03-20T05:48:24;21.93;;;10.53;;
11665;SDS011;5889;51.350;6.708;2023-03-20T05:50:51;21.53;;;9.93;;
11665;SDS011;5889;51.350;6.708;2023-03-20T05:53:19;24.30;;;9.90;;
11665;SDS011;5889;51.350;6.708;2023-03-20T05:55:46;18.67;;;9.70;;
11665;SDS011;5889;51.350;6.708;2023-03-20T05:58:12;19.17;;;9.47;;
11665;SDS011;5889;51.350;6.708;2023-03-20T06:00:39;21.37;;;10.57;;
11665;SDS011;5889;51.350;6.708;2023-03-20T06:03:06;27.97;;;10.13;;
11665;SDS011;5889;51.350;6.708;2023-03-20T06:05:33;20.70;;;9.67;;
11665;SDS011;5889;51.350;6.708;2023-03-20T06:08:00;22.23;;;10.23;;
11665;SDS011;5889;51.350;6.708;2023-03-20T06:10:29;18.70;;;9.67;;
11665;SDS011;5889;51.350;6.708;2023-03-20T06:12:56;16.47;;;9.53;;
11665;SDS011;5889;51.350;6.708;2023-03-20T06:15:25;16.40;;;9.43;;
11665;SDS011;5889;51.350;6.708;2023-03-20T06:17:52;23.13;;;9.83;;
11665;SDS011;5889;51.350;6.708;2023-03-20T06:20:19;15.87;;;9.00;;
11665;SDS011;5889;51.350;6.708;2023-03-20T06:22:45;20.27;;;9.90;;
11665;SDS011;5889;51.350;6.708;2023-03-20T06:25:12;16.07;;;9.77;;
11665;SDS011;5889;51.350;6.708;2023-03-20T06:27:40;21.27;;;10.00;;
11665;SDS011;5889;51.350;6.708;2023-03-20T06:30:08;20.73;;;11.40;;
11665;SDS011;5889;51.350;6.708;2023-03-20T06:32:35;21.00;;;10.90;;
11665;SDS011;5889;51.350;6.708;2023-03-20T06:35:02;18.33;;;9.93;;
11665;SDS011;5889;51.350;6.708;2023-03-20T06:37:30;20.17;;;10.60;;
11665;SDS011;5889;51.350;6.708;2023-03-20T06:39:57;26.00;;;11.57;;
11665;SDS011;5889;51.350;6.708;2023-03-20T06:42:23;23.83;;;11.57;;
11665;SDS011;5889;51.350;6.708;2023-03-20T06:44:52;22.30;;;10.63;;
11665;SDS011;5889;51.350;6.708;2023-03-20T06:47:18;31.70;;;11.97;;
11665;SDS011;5889;51.350;6.708;2023-03-20T06:49:45;23.97;;;10.50;;
11665;SDS011;5889;51.350;6.708;2023-03-20T06:52:13;27.80;;;11.27;;
11665;SDS011;5889;51.350;6.708;2023-03-20T06:54:41;20.67;;;10.53;;
11665;SDS011;5889;51.350;6.708;2023-03-20T06:57:08;20.37;;;10.27;;
11665;SDS011;5889;51.350;6.708;2023-03-20T06:59:35;20.23;;;11.37;;
11665;SDS011;5889;51.350;6.708;2023-03-20T07:02:03;19.40;;;10.83;;
11665;SDS011;5889;51.350;6.708;2023-03-20T07:04:31;17.53;;;9.20;;
11665;SDS011;5889;51.350;6.708;2023-03-20T07:06:58;21.50;;;10.30;;
11665;SDS011;5889;51.350;6.708;2023-03-20T07:09:24;20.07;;;10.03;;
11665;SDS011;5889;51.350;6.708;2023-03-20T07:11:51;19.83;;;10.37;;
11665;SDS011;5889;51.350;6.708;2023-03-20T07:14:18;21.17;;;10.10;;
11665;SDS011;5889;51.350;6.708;2023-03-20T07:16:46;22.23;;;9.97;;
11665;SDS011;5889;51.350;6.708;2023-03-20T07:19:14;19.50;;;10.00;;
11665;SDS011;5889;51.350;6.708;2023-03-20T07:21:41;20.67;;;10.90;;
11665;SDS011;5889;51.350;6.708;2023-03-20T07:24:09;17.13;;;10.23;;
11665;SDS011;5889;51.350;6.708;2023-03-20T07:26:36;24.33;;;10.50;;
11665;SDS011;5889;51.350;6.708;2023-03-20T07:29:03;18.33;;;10.30;;
11665;SDS011;5889;51.350;6.708;2023-03-20T07:31:30;18.30;;;9.57;;
11665;SDS011;5889;51.350;6.708;2023-03-20T07:33:57;24.63;;;10.13;;
11665;SDS011;5889;51.350;6.708;2023-03-20T07:36:25;29.17;;;10.47;;
11665;SDS011;5889;51.350;6.708;2023-03-20T07:38:52;23.77;;;10.80;;
11665;SDS011;5889;51.350;6.708;2023-03-20T07:41:19;23.57;;;10.07;;
11665;SDS011;5889;51.350;6.708;2023-03-20T07:43:45;30.13;;;10.60;;
11665;SDS011;5889;51.350;6.708;2023-03-20T07:46:12;22.77;;;10.27;;
11665;SDS011;5889;51.350;6.708;2023-03-20T07:48:39;24.20;;;9.93;;
11665;SDS011;5889;51.350;6.708;2023-03-20T07:51:05;22.20;;;10.20;;
11665;SDS011;5889;51.350;6.708;2023-03-20T07:53:34;20.70;;;9.93;;
11665;SDS011;5889;51.350;6.708;2023-03-20T07:56:01;24.67;;;10.17;;
11665;SDS011;5889;51.350;6.708;2023-03-20T07:58:27;21.00;;;10.37;;
11665;SDS011;5889;51.350;6.708;2023-03-20T08:00:55;19.53;;;10.37;;
11665;SDS011;5889;51.350;6.708;2023-03-20T08:03:22;21.47;;;10.23;;
11665;SDS011;5889;51.350;6.708;2023-03-20T08:05:48;21.90;;;10.70;;
11665;SDS011;5889;51.350;6.708;2023-03-20T08:08:15;18.00;;;10.30;;
11665;SDS011;5889;51.350;6.708;2023-03-20T08:10:43;23.43;;;10.03;;
11665;SDS011;5889;51.350;6.708;2023-03-20T08:13:10;20.20;;;9.97;;
11665;SDS011;5889;51.350;6.708;2023-03-20T08:15:37;18.67;;;9.87;;
11665;SDS011;5889;51.350;6.708;2023-03-20T08:18:03;18.17;;;9.93;;
11665;SDS011;5889;51.350;6.708;2023-03-20T08:20:30;20.10;;;9.40;;
11665;SDS011;5889;51.350;6.708;2023-03-20T08:22:57;21.27;;;9.23;;
11665;SDS011;5889;51.350;6.708;2023-03-20T08:25:24;16.57;;;9.23;;
11665;SDS011;5889;51.350;6.708;2023-03-20T08:27:52;18.07;;;8.40;;
11665;SDS011;5889;51.350;6.708;2023-03-20T08:30:19;14.57;;;8.37;;
11665;SDS011;5889;51.350;6.708;2023-03-20T08:32:46;15.07;;;8.17;;
11665;SDS011;5889;51.350;6.708;2023-03-20T08:35:12;19.93;;;9.07;;
11665;SDS011;5889;51.350;6.708;2023-03-20T08:37:39;16.20;;;8.27;;
11665;SDS011;5889;51.350;6.708;2023-03-20T08:40:06;15.97;;;8.83;;
11665;SDS011;5889;51.350;6.708;2023-03-20T08:42:34;15.17;;;7.23;;
11665;SDS011;5889;51.350;6.708;2023-03-20T08:45:02;19.83;;;7.77;;
11665;SDS011;5889;51.350;6.708;2023-03-20T08:47:29;16.97;;;8.00;;
11665;SDS011;5889;51.350;6.708;2023-03-20T08:49:56;15.27;;;7.43;;
11665;SDS011;5889;51.350;6.708;2023-03-20T08:52:22;14.67;;;7.33;;
11665;SDS011;5889;51.350;6.708;2023-03-20T08:54:51;14.97;;;6.50;;
11665;SDS011;5889;51.350;6.708;2023-03-20T08:57:18;16.97;;;6.07;;
11665;SDS011;5889;51.350;6.708;2023-03-20T08:59:44;15.37;;;5.33;;
11665;SDS011;5889;51.350;6.708;2023-03-20T09:02:12;12.27;;;5.67;;
11665;SDS011;5889;51.350;6.708;2023-03-20T09:04:39;9.33;;;5.47;;
11665;SDS011;5889;51.350;6.708;2023-03-20T09:07:06;11.87;;;5.97;;
11665;SDS011;5889;51.350;6.708;2023-03-20T09:09:33;11.60;;;4.90;;
11665;SDS011;5889;51.350;6.708;2023-03-20T09:12:00;11.00;;;3.70;;
11665;SDS011;5889;51.350;6.708;2023-03-20T09:14:27;11.07;;;4.13;;
11665;SDS011;5889;51.350;6.708;2023-03-20T09:16:53;9.80;;;3.77;;
11665;SDS011;5889;51.350;6.708;2023-03-20T09:19:22;9.37;;;4.17;;
11665;SDS011;5889;51.350;6.708;2023-03-20T09:21:48;12.23;;;4.63;;
11665;SDS011;5889;51.350;6.708;2023-03-20T09:24:15;9.90;;;3.97;;
11665;SDS011;5889;51.350;6.708;2023-03-20T09:26:42;9.23;;;3.67;;
11665;SDS011;5889;51.350;6.708;2023-03-20T09:29:09;4.97;;;3.20;;
11665;SDS011;5889;51.350;6.708;2023-03-20T09:31:35;9.57;;;3.27;;
11665;SDS011;5889;51.350;6.708;2023-03-20T09:34:02;6.77;;;3.20;;
11665;SDS011;5889;51.350;6.708;2023-03-20T09:36:31;8.27;;;3.10;;
11665;SDS011;5889;51.350;6.708;2023-03-20T09:38:57;7.17;;;2.73;;
11665;SDS011;5889;51.350;6.708;2023-03-20T09:41:25;7.53;;;2.60;;
11665;SDS011;5889;51.350;6.708;2023-03-20T09:44:01;4.30;;;2.60;;
11665;SDS011;5889;51.350;6.708;2023-03-20T09:46:42;6.13;;;2.80;;
11665;SDS011;5889;51.350;6.708;2023-03-20T09:49:17;5.37;;;2.50;;
11665;SDS011;5889;51.350;6.708;2023-03-20T09:51:53;5.57;;;2.50;;
11665;SDS011;5889;51.350;6.708;2023-03-20T09:54:23;5.50;;;2.60;;
11665;SDS011;5889;51.350;6.708;2023-03-20T09:56:52;10.00;;;3.40;;
11665;SDS011;5889;51.350;6.708;2023-03-20T09:59:21;9.47;;;2.90;;
11665;SDS011;5889;51.350;6.708;2023-03-20T10:01:50;6.87;;;3.07;;
11665;SDS011;5889;51.350;6.708;2023-03-20T10:04:20;8.83;;;2.80;;
11665;SDS011;5889;51.350;6.708;2023-03-20T10:06:52;10.73;;;3.00;;
11665;SDS011;5889;51.350;6.708;2023-03-20T10:09:21;6.63;;;3.17;;
11665;SDS011;5889;51.350;6.708;2023-03-20T10:11:54;7.70;;;3.10;;
11665;SDS011;5889;51.350;6.708;2023-03-20T10:14:32;9.20;;;3.30;;
11665;SDS011;5889;51.350;6.708;2023-03-20T10:17:11;7.83;;;3.70;;
11665;SDS011;5889;51.350;6.708;2023-03-20T10:19:55;9.40;;;3.60;;
11665;SDS011;5889;51.350;6.708;2023-03-20T10:22:26;13.57;;;3.57;;
11665;SDS011;5889;51.350;6.708;2023-03-20T10:24:56;6.57;;;3.37;;
11665;SDS011;5889;51.350;6.708;2023-03-20T10:27:30;8.20;;;4.00;;
11665;SDS011;5889;51.350;6.708;2023-03-20T10:30:02;9.00;;;3.90;;
11665;SDS011;5889;51.350;6.708;2023-03-20T10:32:48;9.10;;;3.10;;
11665;SDS011;5889;51.350;6.708;2023-03-20T10:35:25;6.93;;;3.33;;
11665;SDS011;5889;51.350;6.708;2023-03-20T10:38:05;7.60;;;2.67;;
11665;SDS011;5889;51.350;6.708;2023-03-20T10:40:42;7.03;;;2.70;;
11665;SDS011;5889;51.350;6.708;2023-03-20T10:43:12;8.47;;;2.30;;
11665;SDS011;5889;51.350;6.708;2023-03-20T10:45:44;7.83;;;2.70;;
11665;SDS011;5889;51.350;6.708;2023-03-20T10:48:19;7.97;;;3.03;;
11665;SDS011;5889;51.350;6.708;2023-03-20T10:50:51;5.70;;;2.30;;
11665;SDS011;5889;51.350;6.708;2023-03-20T10:53:25;8.63;;;2.70;;
11665;SDS011;5889;51.350;6.708;2023-03-20T10:55:56;6.80;;;2.37;;
11665;SDS011;5889;51.350;6.708;2023-03-20T10:58:27;6.37;;;2.30;;
11665;SDS011;5889;51.350;6.708;2023-03-20T11:00:56;8.10;;;1.90;;
11665;SDS011;5889;51.350;6.708;2023-03-20T11:03:25;9.77;;;2.57;;
11665;SDS011;5889;51.350;6.708;2023-03-20T11:05:54;6.47;;;2.77;;
11665;SDS011;5889;51.350;6.708;2023-03-20T11:08:28;7.30;;;2.60;;
11665;SDS011;5889;51.350;6.708;2023-03-20T11:11:00;6.93;;;2.60;;
11665;SDS011;5889;51.350;6.708;2023-03-20T11:13:29;8.30;;;2.63;;
11665;SDS011;5889;51.350;6.708;2023-03-20T11:16:06;6.20;;;2.70;;
11665;SDS011;5889;51.350;6.708;2023-03-20T11:18:36;9.37;;;3.70;;
11665;SDS011;5889;51.350;6.708;2023-03-20T11:21:03;7.90;;;3.40;;
11665;SDS011;5889;51.350;6.708;2023-03-20T11:23:33;5.97;;;2.97;;
11665;SDS011;5889;51.350;6.708;2023-03-20T11:26:01;8.87;;;3.30;;
11665;SDS011;5889;51.350;6.708;2023-03-20T11:28:31;10.07;;;3.10;;
11665;SDS011;5889;51.350;6.708;2023-03-20T11:31:01;8.73;;;3.10;;
11665;SDS011;5889;51.350;6.708;2023-03-20T11:33:30;9.13;;;2.70;;
11665;SDS011;5889;51.350;6.708;2023-03-20T11:35:58;7.50;;;3.00;;
11665;SDS011;5889;51.350;6.708;2023-03-20T11:38:25;5.23;;;3.00;;
11665;SDS011;5889;51.350;6.708;2023-03-20T11:40:57;8.03;;;3.30;;
11665;SDS011;5889;51.350;6.708;2023-03-20T11:43:25;9.93;;;2.90;;
11665;SDS011;5889;51.350;6.708;2023-03-20T11:45:53;6.80;;;2.70;;
11665;SDS011;5889;51.350;6.708;2023-03-20T11:48:22;7.50;;;2.87;;
11665;SDS011;5889;51.350;6.708;2023-03-20T11:50:58;6.50;;;3.33;;
11665;SDS011;5889;51.350;6.708;2023-03-20T11:53:30;11.17;;;2.90;;
11665;SDS011;5889;51.350;6.708;2023-03-20T11:56:04;7.17;;;2.80;;
11665;SDS011;5889;51.350;6.708;2023-03-20T11:58:35;6.73;;;3.37;;
11665;SDS011;5889;51.350;6.708;2023-03-20T12:01:06;6.13;;;2.80;;
11665;SDS011;5889;51.350;6.708;2023-03-20T12:03:42;5.03;;;2.53;;
11665;SDS011;5889;51.350;6.708;2023-03-20T12:06:15;5.80;;;2.50;;
11665;SDS011;5889;51.350;6.708;2023-03-20T12:08:46;7.37;;;2.30;;
11665;SDS011;5889;51.350;6.708;2023-03-20T12:11:20;7.77;;;2.60;;
11665;SDS011;5889;51.350;6.708;2023-03-20T12:14:01;6.67;;;2.77;;
11665;SDS011;5889;51.350;6.708;2023-03-20T12:16:32;8.63;;;3.03;;
11665;SDS011;5889;51.350;6.708;2023-03-20T12:19:01;7.27;;;3.13;;
11665;SDS011;5889;51.350;6.708;2023-03-20T12:21:37;8.20;;;3.17;;
11665;SDS011;5889;51.350;6.708;2023-03-20T12:24:11;7.17;;;2.80;;
11665;SDS011;5889;51.350;6.708;2023-03-20T12:26:45;6.50;;;2.90;;
11665;SDS011;5889;51.350;6.708;2023-03-20T12:29:21;8.57;;;3.07;;
11665;SDS011;5889;51.350;6.708;2023-03-20T12:31:53;7.33;;;3.17;;
11665;SDS011;5889;51.350;6.708;2023-03-20T12:34:24;10.57;;;3.57;;
11665;SDS011;5889;51.350;6.708;2023-03-20T12:36:54;9.60;;;3.50;;
11665;SDS011;5889;51.350;6.708;2023-03-20T12:39:22;13.73;;;3.27;;
11665;SDS011;5889;51.350;6.708;2023-03-20T12:41:57;6.27;;;3.40;;
11665;SDS011;5889;51.350;6.708;2023-03-20T12:44:35;8.97;;;3.47;;
11665;SDS011;5889;51.350;6.708;2023-03-20T12:47:14;6.57;;;3.10;;
11665;SDS011;5889;51.350;6.708;2023-03-20T12:49:59;7.17;;;3.67;;
11665;SDS011;5889;51.350;6.708;2023-03-20T12:52:34;7.93;;;3.53;;
11665;SDS011;5889;51.350;6.708;2023-03-20T12:55:20;6.47;;;3.20;;
11665;SDS011;5889;51.350;6.708;2023-03-20T12:58:02;7.70;;;3.47;;
11665;SDS011;5889;51.350;6.708;2023-03-20T13:00:35;11.23;;;3.77;;
11665;SDS011;5889;51.350;6.708;2023-03-20T13:03:08;8.63;;;3.07;;
11665;SDS011;5889;51.350;6.708;2023-03-20T13:05:50;9.03;;;3.37;;
11665;SDS011;5889;51.350;6.708;2023-03-20T13:08:31;11.90;;;3.53;;
11665;SDS011;5889;51.350;6.708;2023-03-20T13:11:10;7.77;;;3.17;;
11665;SDS011;5889;51.350;6.708;2023-03-20T13:13:46;8.90;;;3.50;;
11665;SDS011;5889;51.350;6.708;2023-03-20T13:16:18;8.70;;;3.40;;
11665;SDS011;5889;51.350;6.708;2023-03-20T13:18:57;12.33;;;3.70;;
11665;SDS011;5889;51.350;6.708;2023-03-20T13:21:30;10.77;;;3.60;;
11665;SDS011;5889;51.350;6.708;2023-03-20T13:24:02;11.73;;;3.20;;
11665;SDS011;5889;51.350;6.708;2023-03-20T13:26:45;7.87;;;3.77;;
11665;SDS011;5889;51.350;6.708;2023-03-20T13:29:17;8.63;;;3.53;;
11665;SDS011;5889;51.350;6.708;2023-03-20T13:31:52;7.83;;;3.50;;
11665;SDS011;5889;51.350;6.708;2023-03-20T13:34:30;8.57;;;3.77;;
11665;SDS011;5889;51.350;6.708;2023-03-20T13:37:09;10.77;;;3.77;;
11665;SDS011;5889;51.350;6.708;2023-03-20T13:39:41;7.40;;;3.57;;
11665;SDS011;5889;51.350;6.708;2023-03-20T13:42:12;9.63;;;3.80;;
11665;SDS011;5889;51.350;6.708;2023-03-20T13:44:43;11.57;;;3.80;;
11665;SDS011;5889;51.350;6.708;2023-03-20T13:47:12;7.40;;;3.50;;
11665;SDS011;5889;51.350;6.708;2023-03-20T13:49:42;9.00;;;3.03;;
11665;SDS011;5889;51.350;6.708;2023-03-20T13:52:18;7.93;;;3.00;;
11665;SDS011;5889;51.350;6.708;2023-03-20T13:54:53;7.80;;;3.40;;
11665;SDS011;5889;51.350;6.708;2023-03-20T13:57:40;14.20;;;3.60;;
11665;SDS011;5889;51.350;6.708;2023-03-20T14:00:18;7.73;;;3.50;;
11665;SDS011;5889;51.350;6.708;2023-03-20T14:03:00;10.83;;;3.47;;
11665;SDS011;5889;51.350;6.708;2023-03-20T14:05:36;7.40;;;3.27;;
11665;SDS011;5889;51.350;6.708;2023-03-20T14:08:19;8.57;;;3.70;;
11665;SDS011;5889;51.350;6.708;2023-03-20T14:10:50;8.17;;;3.20;;
11665;SDS011;5889;51.350;6.708;2023-03-20T14:13:20;12.17;;;3.77;;
11665;SDS011;5889;51.350;6.708;2023-03-20T14:15:52;10.03;;;3.27;;
11665;SDS011;5889;51.350;6.708;2023-03-20T14:18:20;11.53;;;3.53;;
11665;SDS011;5889;51.350;6.708;2023-03-20T14:20:52;12.27;;;3.67;;
11665;SDS011;5889;51.350;6.708;2023-03-20T14:23:25;9.60;;;4.03;;
11665;SDS011;5889;51.350;6.708;2023-03-20T14:25:57;12.70;;;3.80;;
11665;SDS011;5889;51.350;6.708;2023-03-20T14:28:26;10.37;;;4.27;;
11665;SDS011;5889;51.350;6.708;2023-03-20T14:33:52;9.30;;;3.43;;
11665;SDS011;5889;51.350;6.708;2023-03-20T14:36:26;8.30;;;3.27;;
11665;SDS011;5889;51.350;6.708;2023-03-20T14:39:02;11.07;;;3.57;;
11665;SDS011;5889;51.350;6.708;2023-03-20T14:41:38;11.07;;;4.00;;
11665;SDS011;5889;51.350;6.708;2023-03-20T14:44:20;13.03;;;4.10;;
11665;SDS011;5889;51.350;6.708;2023-03-20T14:46:55;14.50;;;4.20;;
11665;SDS011;5889;51.350;6.708;2023-03-20T14:52:19;9.73;;;4.10;;
11665;SDS011;5889;51.350;6.708;2023-03-20T14:54:55;12.57;;;4.10;;
11665;SDS011;5889;51.350;6.708;2023-03-20T14:57:40;14.40;;;4.03;;
11665;SDS011;5889;51.350;6.708;2023-03-20T15:00:15;10.80;;;4.13;;
11665;SDS011;5889;51.350;6.708;2023-03-20T15:02:45;10.50;;;3.60;;
11665;SDS011;5889;51.350;6.708;2023-03-20T15:05:22;9.87;;;4.30;;
11665;SDS011;5889;51.350;6.708;2023-03-20T15:07:53;8.20;;;3.70;;
11665;SDS011;5889;51.350;6.708;2023-03-20T15:10:22;9.73;;;3.90;;
11665;SDS011;5889;51.350;6.708;2023-03-20T15:12:50;11.43;;;3.60;;
11665;SDS011;5889;51.350;6.708;2023-03-20T15:15:23;14.40;;;4.23;;
11665;SDS011;5889;51.350;6.708;2023-03-20T15:17:52;11.73;;;4.00;;
11665;SDS011;5889;51.350;6.708;2023-03-20T15:20:20;12.77;;;4.50;;